createdAt,value
2018-09-29T00:01:06.944Z,4.00
2018-09-29T00:03:39.219Z,4.00
2018-09-29T00:06:11.237Z,4.00
2018-09-29T00:08:42.673Z,4.00
2018-09-29T00:11:14.547Z,4.10
2018-09-29T00:13:45.711Z,4.00
2018-09-29T00:16:17.176Z,3.90
2018-09-29T00:18:48.274Z,3.90
2018-09-29T00:21:19.702Z,3.90
2018-09-29T00:23:51.640Z,3.80
2018-09-29T00:26:23.820Z,3.80
2018-09-29T00:28:55.018Z,3.70
2018-09-29T00:31:26.043Z,3.80
2018-09-29T00:33:57.455Z,3.90
2018-09-29T00:36:29.743Z,4.10
2018-09-29T00:39:01.252Z,4.10
2018-09-29T00:41:33.122Z,3.90
2018-09-29T00:44:05.402Z,3.90
2018-09-29T00:46:36.821Z,3.80
2018-09-29T00:49:08.497Z,3.60
2018-09-29T00:51:40.382Z,3.60
2018-09-29T00:54:11.747Z,3.50
2018-09-29T00:56:43.000Z,3.50
2018-09-29T00:59:14.364Z,3.40
2018-09-29T01:01:46.092Z,3.40
2018-09-29T01:04:17.686Z,3.40
2018-09-29T01:06:48.939Z,3.40
2018-09-29T01:09:19.995Z,3.50
2018-09-29T01:11:51.323Z,3.60
2018-09-29T01:14:22.623Z,3.60
2018-09-29T01:16:53.873Z,3.50
2018-09-29T01:19:25.322Z,3.40
2018-09-29T01:21:57.017Z,3.40
2018-09-29T01:24:28.558Z,3.40
2018-09-29T01:27:00.084Z,3.40
2018-09-29T01:29:31.097Z,3.20
2018-09-29T01:32:05.609Z,3.20
2018-09-29T01:34:36.941Z,3.10
2018-09-29T01:37:09.531Z,3.10
2018-09-29T01:39:40.447Z,3.00
2018-09-29T01:42:12.470Z,3.50
2018-09-29T01:44:43.532Z,3.70
2018-09-29T01:47:15.825Z,3.80
2018-09-29T01:49:47.184Z,3.60
2018-09-29T01:52:18.389Z,3.60
2018-09-29T01:54:50.383Z,3.60
2018-09-29T01:57:21.581Z,3.30
2018-09-29T01:59:59.396Z,3.10
2018-09-29T02:02:30.829Z,3.00
2018-09-29T02:05:02.302Z,2.90
2018-09-29T02:07:34.075Z,2.90
2018-09-29T02:10:06.600Z,2.70
2018-09-29T02:12:38.128Z,2.70
2018-09-29T02:15:09.534Z,2.60
2018-09-29T02:17:40.979Z,2.60
2018-09-29T02:20:13.232Z,2.60
2018-09-29T02:22:45.316Z,2.90
2018-09-29T02:25:17.200Z,2.80
2018-09-29T02:27:48.344Z,2.70
2018-09-29T02:30:19.865Z,2.60
2018-09-29T02:32:50.965Z,2.50
2018-09-29T02:35:21.619Z,2.50
2018-09-29T02:37:52.950Z,2.30
2018-09-29T02:40:24.532Z,2.30
2018-09-29T02:42:55.768Z,2.30
2018-09-29T02:45:27.437Z,2.30
2018-09-29T02:47:58.252Z,2.20
2018-09-29T02:50:29.277Z,2.20
2018-09-29T02:53:00.568Z,2.20
2018-09-29T02:55:32.045Z,2.40
2018-09-29T02:58:03.255Z,2.50
2018-09-29T03:00:34.623Z,2.40
2018-09-29T03:03:05.852Z,2.30
2018-09-29T03:05:37.108Z,2.30
2018-09-29T03:08:14.743Z,2.10
2018-09-29T03:10:45.839Z,2.00
2018-09-29T03:13:17.583Z,1.90
2018-09-29T03:15:49.455Z,1.80
2018-09-29T03:18:21.172Z,1.70
2018-09-29T03:20:52.432Z,1.60
2018-09-29T03:23:23.536Z,1.60
2018-09-29T03:25:56.701Z,1.70
2018-09-29T03:28:27.537Z,1.60
2018-09-29T03:30:58.837Z,1.60
2018-09-29T03:33:30.253Z,1.50
2018-09-29T03:36:01.778Z,1.50
2018-09-29T03:38:32.898Z,1.40
2018-09-29T03:41:05.149Z,1.40
2018-09-29T03:43:36.317Z,1.30
2018-09-29T03:46:07.401Z,1.40
2018-09-29T03:48:38.180Z,1.50
2018-09-29T03:51:09.353Z,1.50
2018-09-29T03:53:40.774Z,1.50
2018-09-29T03:56:11.794Z,1.40
2018-09-29T03:58:43.225Z,1.50
2018-09-29T04:01:16.028Z,1.50
2018-09-29T04:03:47.152Z,1.40
2018-09-29T04:06:18.636Z,1.30
2018-09-29T04:08:49.964Z,1.20
2018-09-29T04:11:23.252Z,1.20
2018-09-29T04:13:54.579Z,1.20
2018-09-29T04:16:26.656Z,1.20
2018-09-29T04:18:57.923Z,1.20
2018-09-29T04:21:33.418Z,1.60
2018-09-29T04:24:05.113Z,1.70
2018-09-29T04:26:36.063Z,1.60
2018-09-29T04:29:07.953Z,1.60
2018-09-29T04:31:39.665Z,1.40
2018-09-29T04:34:11.791Z,1.20
2018-09-29T04:36:43.233Z,1.20
2018-09-29T04:39:15.544Z,1.10
2018-09-29T04:41:47.526Z,1.10
2018-09-29T04:44:18.700Z,1.20
2018-09-29T04:46:49.850Z,1.10
2018-09-29T04:49:21.159Z,1.10
2018-09-29T04:51:52.387Z,1.00
2018-09-29T04:54:24.775Z,1.00
2018-09-29T04:56:55.747Z,1.00
2018-09-29T04:59:27.680Z,0.90
2018-09-29T05:01:59.443Z,0.90
2018-09-29T05:04:30.274Z,0.90
2018-09-29T05:07:01.734Z,0.90
2018-09-29T05:09:32.791Z,0.80
2018-09-29T05:12:04.431Z,0.80
2018-09-29T05:14:35.323Z,1.00
2018-09-29T05:17:06.406Z,1.30
2018-09-29T05:19:37.417Z,1.40
2018-09-29T05:22:08.660Z,1.40
2018-09-29T05:24:40.814Z,1.30
2018-09-29T05:27:12.580Z,1.40
2018-09-29T05:29:44.662Z,1.40
2018-09-29T05:32:17.257Z,1.30
2018-09-29T05:34:49.413Z,1.20
2018-09-29T05:37:21.111Z,1.20
2018-09-29T05:39:55.874Z,1.20
2018-09-29T05:42:28.614Z,1.20
2018-09-29T05:45:00.267Z,1.20
2018-09-29T05:47:33.453Z,1.10
2018-09-29T05:50:04.892Z,1.20
2018-09-29T05:52:44.063Z,1.10
2018-09-29T05:55:17.520Z,1.00
2018-09-29T06:00:46.329Z,1.00
2018-09-29T06:03:21.120Z,1.10
2018-09-29T06:06:02.492Z,1.00
2018-09-29T06:08:36.181Z,1.10
2018-09-29T06:11:08.064Z,1.20
2018-09-29T06:13:40.394Z,1.20
2018-09-29T06:16:12.460Z,1.30
2018-09-29T06:18:44.326Z,1.40
2018-09-29T06:21:16.345Z,1.50
2018-09-29T06:23:47.670Z,1.60
2018-09-29T06:26:19.981Z,1.70
2018-09-29T06:28:56.418Z,1.80
2018-09-29T06:31:28.238Z,2.00
2018-09-29T06:33:59.600Z,2.20
2018-09-29T06:36:31.817Z,2.40
2018-09-29T06:39:03.907Z,2.60
2018-09-29T06:41:35.833Z,2.70
2018-09-29T06:44:07.634Z,2.90
2018-09-29T06:46:39.235Z,3.30
2018-09-29T06:49:12.293Z,3.40
2018-09-29T06:51:45.182Z,3.60
2018-09-29T06:54:18.099Z,3.70
2018-09-29T06:56:49.662Z,3.90
2018-09-29T06:59:24.475Z,4.00
2018-09-29T07:02:01.844Z,4.10
2018-09-29T07:04:32.421Z,4.30
2018-09-29T07:07:03.888Z,4.50
2018-09-29T07:09:35.158Z,4.60
2018-09-29T07:12:06.956Z,4.70
2018-09-29T07:14:38.440Z,4.80
2018-09-29T07:17:08.967Z,4.90
2018-09-29T07:19:39.138Z,5.10
2018-09-29T07:22:10.529Z,5.20
2018-09-29T07:24:41.046Z,5.40
2018-09-29T07:27:11.161Z,5.50
2018-09-29T07:29:44.591Z,5.70
2018-09-29T07:32:15.892Z,5.80
2018-09-29T07:34:46.114Z,6.00
2018-09-29T07:37:18.701Z,6.10
2018-09-29T07:39:48.816Z,6.40
2018-09-29T07:42:19.090Z,6.50
2018-09-29T07:44:49.448Z,6.70
2018-09-29T07:47:19.412Z,7.00
2018-09-29T07:49:49.460Z,7.00
2018-09-29T07:52:19.439Z,7.10
2018-09-29T07:54:49.422Z,7.20
2018-09-29T07:57:23.960Z,7.40
2018-09-29T07:59:53.901Z,7.50
2018-09-29T08:02:25.329Z,7.70
2018-09-29T08:04:55.640Z,8.00
2018-09-29T08:07:25.675Z,8.20
2018-09-29T08:09:55.503Z,8.40
2018-09-29T08:12:26.175Z,8.60
2018-09-29T08:15:01.381Z,9.00
2018-09-29T08:17:31.311Z,9.10
2018-09-29T08:20:01.595Z,9.20
2018-09-29T08:22:31.792Z,9.60
2018-09-29T08:25:02.031Z,10.00
2018-09-29T08:27:32.196Z,10.10
2018-09-29T08:30:02.179Z,10.30
2018-09-29T08:32:36.391Z,10.50
2018-09-29T08:35:06.430Z,11.00
2018-09-29T08:37:36.714Z,11.30
2018-09-29T08:40:07.282Z,11.50
2018-09-29T08:42:42.111Z,11.70
2018-09-29T08:45:14.729Z,11.80
2018-09-29T08:47:46.449Z,11.90
2018-09-29T08:50:16.643Z,11.90
2018-09-29T08:52:46.793Z,12.00
2018-09-29T08:55:16.879Z,12.20
2018-09-29T08:57:47.212Z,12.30
2018-09-29T09:00:16.766Z,12.50
2018-09-29T09:02:46.686Z,12.60
2018-09-29T09:05:16.320Z,12.80
2018-09-29T09:07:46.345Z,13.10
2018-09-29T09:10:16.677Z,13.20
2018-09-29T09:12:47.042Z,13.20
2018-09-29T09:15:17.243Z,13.30
2018-09-29T09:17:47.542Z,13.50
2018-09-29T09:20:17.774Z,13.80
2018-09-29T09:22:47.683Z,14.00
2018-09-29T09:25:18.055Z,14.10
2018-09-29T09:27:48.318Z,14.20
2018-09-29T09:30:19.147Z,14.30
2018-09-29T09:32:49.346Z,14.30
2018-09-29T09:35:20.718Z,14.40
2018-09-29T09:37:50.672Z,14.50
2018-09-29T09:40:21.184Z,14.50
2018-09-29T09:42:52.068Z,14.80
2018-09-29T09:45:22.285Z,14.80
2018-09-29T09:47:52.182Z,14.70
2018-09-29T09:50:22.644Z,14.80
2018-09-29T09:52:53.563Z,14.90
2018-09-29T09:55:23.631Z,15.00
2018-09-29T09:57:54.102Z,15.10
2018-09-29T10:00:28.229Z,15.20
2018-09-29T10:03:05.881Z,15.50
2018-09-29T10:05:35.822Z,16.40
2018-09-29T10:08:05.536Z,17.90
2018-09-29T10:10:35.785Z,18.90
2018-09-29T10:13:06.033Z,20.00
2018-09-29T10:15:35.983Z,20.20
2018-09-29T10:18:06.344Z,20.60
2018-09-29T10:20:36.365Z,21.30
2018-09-29T10:23:06.814Z,22.10
2018-09-29T10:25:36.570Z,22.60
2018-09-29T10:28:06.524Z,22.90
2018-09-29T10:30:36.608Z,23.10
2018-09-29T10:33:06.507Z,23.20
2018-09-29T10:35:36.295Z,23.70
2018-09-29T10:38:06.188Z,22.80
2018-09-29T10:40:36.722Z,21.30
2018-09-29T10:43:06.962Z,21.60
2018-09-29T10:45:37.291Z,22.30
2018-09-29T10:48:07.476Z,23.20
2018-09-29T10:50:37.499Z,23.70
2018-09-29T10:53:07.534Z,23.70
2018-09-29T10:55:38.104Z,24.00
2018-09-29T10:58:07.882Z,24.20
2018-09-29T11:00:37.991Z,24.40
2018-09-29T11:03:09.220Z,24.20
2018-09-29T11:05:39.587Z,24.40
2018-09-29T11:08:09.807Z,24.20
2018-09-29T11:10:39.901Z,24.50
2018-09-29T11:13:10.396Z,24.40
2018-09-29T11:15:40.859Z,24.40
2018-09-29T11:18:10.956Z,24.80
2018-09-29T11:20:41.076Z,25.00
2018-09-29T11:23:11.135Z,23.70
2018-09-29T11:25:41.241Z,23.80
2018-09-29T11:28:12.699Z,24.00
2018-09-29T11:30:42.983Z,24.50
2018-09-29T11:33:14.061Z,24.70
2018-09-29T11:35:43.879Z,25.40
2018-09-29T11:38:13.859Z,25.70
2018-09-29T11:40:44.400Z,25.60
2018-09-29T11:43:14.503Z,25.60
2018-09-29T11:45:44.568Z,25.70
2018-09-29T11:48:14.192Z,25.50
2018-09-29T11:50:44.899Z,25.00
2018-09-29T11:53:15.211Z,24.90
2018-09-29T11:55:45.994Z,24.80
2018-09-29T11:58:15.910Z,25.00
2018-09-29T12:00:45.953Z,25.30
2018-09-29T12:03:16.703Z,25.80
2018-09-29T12:05:46.513Z,26.00
2018-09-29T12:08:16.998Z,26.40
2018-09-29T12:10:48.716Z,26.30
2018-09-29T12:13:18.266Z,25.50
2018-09-29T12:15:48.261Z,25.60
2018-09-29T12:18:18.054Z,25.70
2018-09-29T12:20:48.194Z,24.80
2018-09-29T12:23:18.298Z,25.40
2018-09-29T12:25:48.346Z,26.20
2018-09-29T12:28:18.332Z,26.60
2018-09-29T12:30:48.846Z,24.40
2018-09-29T12:33:19.140Z,24.70
2018-09-29T12:35:49.408Z,24.90
2018-09-29T12:38:19.836Z,25.40
2018-09-29T12:40:50.030Z,25.80
2018-09-29T12:43:20.348Z,25.70
2018-09-29T12:45:50.525Z,25.40
2018-09-29T12:48:20.578Z,25.10
2018-09-29T12:50:50.968Z,25.10
2018-09-29T12:53:21.452Z,25.40
2018-09-29T12:55:51.559Z,25.40
2018-09-29T12:58:21.745Z,24.80
2018-09-29T13:00:52.035Z,25.80
2018-09-29T13:03:22.108Z,26.70
2018-09-29T13:05:52.180Z,26.20
2018-09-29T13:08:22.543Z,26.50
2018-09-29T13:10:53.507Z,26.40
2018-09-29T13:13:23.461Z,27.10
2018-09-29T13:15:53.597Z,27.20
2018-09-29T13:18:23.739Z,27.50
2018-09-29T13:20:53.570Z,28.40
2018-09-29T13:23:23.974Z,28.90
2018-09-29T13:25:54.262Z,29.00
2018-09-29T13:28:24.315Z,28.80
2018-09-29T13:30:57.562Z,28.90
2018-09-29T13:33:27.846Z,28.90
2018-09-29T13:37:02.224Z,28.00
2018-09-29T13:39:34.593Z,27.50
2018-09-29T13:42:11.454Z,27.70
2018-09-29T13:44:42.583Z,28.10
2018-09-29T13:47:14.071Z,28.70
2018-09-29T13:49:44.718Z,29.10
2018-09-29T13:52:15.387Z,29.70
2018-09-29T13:54:44.826Z,29.90
2018-09-29T13:57:15.534Z,29.70
2018-09-29T14:00:00.533Z,29.90
2018-09-29T14:02:30.959Z,30.20
2018-09-29T14:05:01.979Z,30.00
2018-09-29T14:07:32.581Z,28.80
2018-09-29T14:10:04.127Z,26.80
2018-09-29T14:12:34.868Z,27.00
2018-09-29T14:15:06.148Z,28.40
2018-09-29T14:17:36.396Z,28.20
2018-09-29T14:20:07.355Z,28.30
2018-09-29T14:22:38.536Z,28.20
2018-09-29T14:25:12.713Z,28.40
2018-09-29T14:28:17.450Z,29.00
2018-09-29T14:30:49.154Z,29.40
2018-09-29T14:33:28.506Z,29.60
2018-09-29T14:36:01.786Z,29.90
2018-09-29T14:38:34.073Z,29.70
2018-09-29T14:41:11.505Z,28.70
2018-09-29T14:43:43.206Z,27.90
2018-09-29T14:46:15.332Z,28.30
2018-09-29T14:48:51.813Z,28.90
2018-09-29T14:51:23.914Z,29.30
2018-09-29T14:53:57.829Z,29.50
2018-09-29T14:56:31.489Z,30.20
2018-09-29T14:59:05.189Z,29.60
2018-09-29T15:01:38.230Z,28.90
2018-09-29T15:04:19.724Z,28.20
2018-09-29T15:06:55.751Z,28.50
2018-09-29T15:09:35.242Z,29.10
2018-09-29T15:12:08.034Z,28.80
2018-09-29T15:14:42.338Z,28.90
2018-09-29T15:17:18.044Z,27.90
2018-09-29T15:19:49.307Z,28.30
2018-09-29T15:23:31.170Z,29.00
2018-09-29T15:26:06.093Z,28.90
2018-09-29T15:28:40.552Z,27.60
2018-09-29T15:31:14.643Z,27.80
2018-09-29T15:33:48.432Z,28.30
2018-09-29T15:36:21.293Z,28.40
2018-09-29T15:38:59.486Z,28.50
2018-09-29T15:41:37.221Z,28.50
2018-09-29T15:44:12.828Z,29.00
2018-09-29T15:46:46.498Z,28.70
2018-09-29T15:49:21.527Z,28.50
2018-09-29T15:51:56.872Z,28.40
2018-09-29T15:54:29.917Z,28.30
2018-09-29T15:57:04.646Z,27.80
2018-09-29T15:59:37.560Z,27.10
2018-09-29T16:02:09.924Z,26.00
2018-09-29T16:04:43.809Z,24.70
2018-09-29T16:07:17.729Z,23.30
2018-09-29T16:09:50.554Z,22.40
2018-09-29T16:12:23.420Z,22.20
2018-09-29T16:14:58.453Z,22.50
2018-09-29T16:17:30.003Z,22.60
2018-09-29T16:20:02.258Z,22.80
2018-09-29T16:22:34.210Z,22.80
2018-09-29T16:25:06.886Z,22.50
2018-09-29T16:27:39.969Z,22.10
2018-09-29T16:30:12.938Z,22.10
2018-09-29T16:32:46.074Z,22.20
2018-09-29T16:35:17.316Z,21.80
2018-09-29T16:37:48.315Z,21.60
2018-09-29T16:40:20.437Z,21.30
2018-09-29T16:42:52.065Z,20.70
2018-09-29T16:45:30.079Z,20.00
2018-09-29T16:48:02.282Z,19.20
2018-09-29T16:50:34.006Z,18.50
2018-09-29T16:53:06.684Z,17.90
2018-09-29T16:55:39.502Z,17.40
2018-09-29T16:58:12.230Z,16.90
2018-09-29T17:00:45.089Z,16.60
2018-09-29T17:03:18.227Z,16.10
2018-09-29T17:05:54.293Z,15.60
2018-09-29T17:08:27.176Z,15.20
2018-09-29T17:11:03.627Z,14.70
2018-09-29T17:13:36.075Z,14.30
2018-09-29T17:16:08.503Z,14.30
2018-09-29T17:18:41.612Z,14.10
2018-09-29T17:21:12.710Z,13.60
2018-09-29T17:23:44.799Z,13.20
2018-09-29T17:26:16.212Z,12.90
2018-09-29T17:28:47.926Z,12.70
2018-09-29T17:31:28.794Z,12.40
2018-09-29T17:34:01.380Z,12.10
2018-09-29T17:36:32.426Z,11.80
2018-09-29T17:39:16.946Z,11.50
2018-09-29T17:41:50.543Z,11.30
2018-09-29T17:44:25.180Z,11.10
2018-09-29T17:47:04.554Z,10.90
2018-09-29T17:49:35.884Z,10.80
2018-09-29T17:52:11.267Z,10.70
2018-09-29T17:54:44.258Z,10.60
2018-09-29T17:57:24.198Z,10.40
2018-09-29T17:59:58.164Z,10.20
2018-09-29T18:02:31.014Z,10.00
2018-09-29T18:05:05.147Z,9.80
2018-09-29T18:07:37.931Z,9.70
2018-09-29T18:10:09.852Z,9.60
2018-09-29T18:12:40.955Z,9.50
2018-09-29T18:15:25.436Z,9.40
2018-09-29T18:18:34.524Z,9.30
2018-09-29T18:21:13.140Z,9.10
2018-09-29T18:23:47.549Z,9.00
2018-09-29T18:26:24.296Z,8.80
2018-09-29T18:28:58.958Z,8.70
2018-09-29T18:31:35.698Z,8.80
2018-09-29T18:34:13.963Z,8.70
2018-09-29T18:36:48.222Z,8.40
2018-09-29T18:39:23.978Z,8.30
2018-09-29T18:41:57.962Z,8.30
2018-09-29T18:44:31.915Z,8.20
2018-09-29T18:47:08.071Z,8.10
2018-09-29T18:49:41.923Z,8.00
2018-09-29T18:52:17.605Z,7.90
2018-09-29T18:54:55.617Z,7.70
2018-09-29T18:57:31.012Z,7.60
2018-09-29T19:00:12.214Z,7.60
2018-09-29T19:02:44.484Z,7.60
2018-09-29T19:05:17.239Z,7.40
2018-09-29T19:07:49.693Z,7.30
2018-09-29T19:10:22.439Z,7.20
2018-09-29T19:12:54.442Z,7.10
2018-09-29T19:15:32.243Z,7.10
2018-09-29T19:18:05.625Z,7.00
2018-09-29T19:20:38.714Z,6.90
2018-09-29T19:23:10.322Z,6.80
2018-09-29T19:25:43.741Z,6.70
2018-09-29T19:28:15.431Z,6.70
2018-09-29T19:30:49.200Z,6.70
2018-09-29T19:33:27.407Z,6.70
2018-09-29T19:36:00.377Z,6.60
2018-09-29T19:41:43.559Z,6.30
2018-09-29T19:44:24.366Z,6.20
2018-09-29T19:47:09.039Z,6.20
2018-09-29T19:49:46.997Z,6.30
2018-09-29T19:52:24.993Z,6.20
2018-09-29T19:55:04.343Z,6.10
2018-09-29T19:57:39.617Z,6.10
2018-09-29T20:00:12.482Z,6.00
2018-09-29T20:02:52.352Z,5.80
2018-09-29T20:05:25.897Z,5.80
2018-09-29T20:07:59.248Z,5.70
2018-09-29T20:10:33.142Z,5.60
2018-09-29T20:13:07.775Z,5.50
2018-09-29T20:15:44.333Z,5.50
2018-09-29T20:18:17.211Z,5.40
2018-09-29T20:20:48.803Z,5.40
2018-09-29T20:23:25.490Z,5.50
2018-09-29T20:26:02.125Z,5.60
2018-09-29T20:28:41.848Z,5.50
2018-09-29T20:31:18.705Z,5.40
2018-09-29T20:33:52.008Z,5.40
2018-09-29T20:36:30.194Z,5.30
2018-09-29T20:39:08.477Z,5.20
2018-09-29T20:41:47.733Z,5.20
2018-09-29T20:44:21.479Z,5.10
2018-09-29T20:47:00.138Z,5.10
2018-09-29T20:49:34.759Z,5.00
2018-09-29T20:52:08.326Z,5.00
2018-09-29T20:54:39.279Z,5.10
2018-09-29T20:57:14.680Z,5.10
2018-09-29T20:59:45.798Z,5.10
2018-09-29T21:02:17.328Z,5.10
2018-09-29T21:04:50.404Z,5.00
2018-09-29T21:07:21.804Z,5.00
2018-09-29T21:11:00.517Z,4.90
2018-09-29T21:13:33.349Z,4.80
2018-09-29T21:16:04.374Z,5.00
2018-09-29T21:18:35.530Z,4.90
2018-09-29T21:21:06.641Z,4.80
2018-09-29T21:23:37.640Z,4.60
2018-09-29T21:26:09.298Z,4.60
2018-09-29T21:28:40.408Z,4.60
2018-09-29T21:31:12.728Z,4.60
2018-09-29T21:33:44.374Z,4.60
2018-09-29T21:36:17.115Z,4.50
2018-09-29T21:38:48.545Z,4.40
2018-09-29T21:41:19.721Z,4.30
2018-09-29T21:43:51.494Z,4.30
2018-09-29T21:46:22.508Z,4.30
2018-09-29T21:48:53.954Z,4.20
2018-09-29T21:51:26.234Z,4.20
2018-09-29T21:53:56.496Z,4.20
2018-09-29T21:56:27.293Z,4.10
2018-09-29T21:58:58.444Z,4.00
2018-09-29T22:01:31.867Z,4.00
2018-09-29T22:04:03.607Z,4.10
2018-09-29T22:06:33.746Z,4.20
2018-09-29T22:09:04.507Z,4.20
2018-09-29T22:11:35.213Z,4.10
2018-09-29T22:14:10.007Z,4.10
2018-09-29T22:16:40.497Z,4.20
2018-09-29T22:19:11.080Z,4.10
2018-09-29T22:21:42.165Z,4.00
2018-09-29T22:24:12.183Z,3.90
2018-09-29T22:26:44.449Z,3.90
2018-09-29T22:29:15.411Z,3.80
2018-09-29T22:31:46.341Z,3.70
2018-09-29T22:34:17.283Z,3.70
2018-09-29T22:36:48.063Z,3.70
2018-09-29T22:39:19.208Z,3.90
2018-09-29T22:41:50.258Z,4.00
2018-09-29T22:44:21.317Z,3.90
2018-09-29T22:46:53.175Z,3.90
2018-09-29T22:49:24.448Z,3.90
2018-09-29T22:51:56.062Z,3.70
2018-09-29T22:54:27.175Z,3.60
2018-09-29T22:56:59.232Z,3.40
2018-09-29T22:59:29.921Z,3.40
2018-09-29T23:02:00.064Z,3.30
2018-09-29T23:04:30.436Z,3.20
2018-09-29T23:07:00.718Z,3.20
2018-09-29T23:09:30.732Z,3.20
2018-09-29T23:12:01.066Z,3.10
2018-09-29T23:14:30.993Z,3.00
2018-09-29T23:17:01.252Z,3.00
2018-09-29T23:19:31.633Z,3.00
2018-09-29T23:22:05.067Z,3.00
2018-09-29T23:24:37.357Z,3.10
2018-09-29T23:27:08.596Z,3.00
2018-09-29T23:29:47.262Z,2.90
2018-09-29T23:32:20.041Z,2.90
2018-09-29T23:34:52.546Z,2.80
2018-09-29T23:37:24.479Z,3.10
2018-09-29T23:39:58.872Z,3.20
2018-09-29T23:42:29.280Z,3.10
2018-09-29T23:45:00.170Z,3.00
2018-09-29T23:47:30.196Z,2.90
2018-09-29T23:50:01.780Z,2.90
2018-09-29T23:52:33.722Z,3.00
2018-09-29T23:55:04.055Z,3.10
2018-09-29T23:57:34.368Z,3.00
